| time (UTC) | temp C | wind direction | speed KPH | gust KPH | rain 1hr cm | rain 24hr cm | rain mn cm | humidity % | barometer mb |
| 20260905193554 | 12 | 234 | 3.2 | 3.2 | 0.46 | 0.61 | 0.00 | 90 | 1324.9 |
| 20260905190541 | 13 | 264 | 8.0 | 9.7 | 0.10 | 0.23 | 0.00 | 79 | 1324.9 |
| 20260905183529 | 13 | 283 | 0.0 | 0.0 | 0.00 | 0.10 | 0.00 | 71 | 1324.1 |
| 20260905180529 | 14 | 342 | 3.2 | 3.2 | 0.00 | 0.10 | 0.00 | 70 | 1324.1 |
| 20260905173517 | 17 | 189 | 4.8 | 4.8 | 0.00 | 0.10 | 0.00 | 59 | 1323.6 |
| 20260905170516 | 18 | 140 | 8.0 | 8.0 | 0.00 | 0.10 | 0.00 | 57 | 1323.2 |
| 20260905163504 | 17 | 175 | 1.6 | 1.6 | 0.00 | 0.10 | 0.00 | 58 | 1323.0 |
| 20260905160504 | 18 | 252 | 3.2 | 3.2 | 0.00 | 0.10 | 0.00 | 53 | 1322.8 |
| 20260905153451 | 20 | 66 | 4.8 | 4.8 | 0.00 | 0.10 | 0.00 | 49 | 1322.7 |
| 20260905150451 | 20 | 6 | 8.0 | 8.0 | 0.00 | 0.10 | 0.00 | 45 | 1322.5 |
| 20260905143439 | 20 | 194 | 4.8 | 4.8 | 0.00 | 0.10 | 0.00 | 47 | 1322.4 |
| 20260905140427 | 20 | 138 | 4.8 | 6.4 | 0.00 | 0.10 | 0.00 | 48 | 1322.5 |
| 20260905133426 | 20 | 205 | 11.3 | 14.5 | 0.00 | 0.10 | 0.00 | 46 | 1322.4 |
| 20260905130413 | 20 | 270 | 9.7 | 11.3 | 0.00 | 0.10 | 0.00 | 47 | 1322.5 |
| 20260905123414 | 18 | 228 | 4.8 | 4.8 | 0.00 | 0.10 | 0.00 | 50 | 1322.7 |
| 20260905120401 | 20 | 208 | 3.2 | 3.2 | 0.00 | 0.10 | 0.00 | 51 | 1322.6 |
| 20260905113401 | 18 | 325 | 6.4 | 6.4 | 0.00 | 0.10 | 0.00 | 57 | 1322.6 |
| 20260905110348 | 18 | 271 | 11.3 | 16.1 | 0.00 | 0.10 | 0.00 | 57 | 1322.4 |
| 20260905103348 | 18 | 174 | 6.4 | 6.4 | 0.00 | 0.10 | 0.00 | 56 | 1322.3 |
| 20260905100336 | 18 | 226 | 6.4 | 8.0 | 0.00 | 0.10 | 0.00 | 60 | 1322.2 |
| 20260905093336 | 18 | 173 | 6.4 | 6.4 | 0.00 | 0.10 | 0.00 | 57 | 1322.0 |
| 20260905090335 | 18 | 175 | 4.8 | 4.8 | 0.00 | 0.10 | 0.00 | 62 | 1321.9 |
| 20260905083323 | 17 | 266 | 4.8 | 4.8 | 0.00 | 0.10 | 0.00 | 67 | 1321.8 |
| 20260905080310 | 17 | 41 | 6.4 | 6.4 | 0.00 | 0.10 | 0.00 | 71 | 1321.7 |
| 20260905073311 | 16 | 254 | 9.7 | 11.3 | 0.00 | 0.10 | 0.00 | 74 | 1321.5 |
| 20260905070310 | 16 | 206 | 3.2 | 3.2 | 0.00 | 0.10 | 0.00 | 79 | 1321.2 |
| 20260905063310 | 15 | 306 | 4.8 | 6.4 | 0.00 | 0.10 | 0.00 | 82 | 1320.8 |
| 20260905060258 | 15 | 144 | 8.0 | 8.0 | 0.00 | 0.10 | 0.00 | 85 | 1320.5 |
| 20260905053245 | 15 | 264 | 4.8 | 4.8 | 0.00 | 0.10 | 0.00 | 85 | 1320.1 |
| 20260905050245 | 15 | 270 | 3.2 | 3.2 | 0.00 | 0.10 | 0.00 | 86 | 1319.9 |
| 20260905043244 | 15 | 182 | 4.8 | 6.4 | 0.00 | 0.10 | 0.00 | 86 | 1319.4 |
| 20260905040232 | 15 | 264 | 3.2 | 3.2 | 0.00 | 0.10 | 0.00 | 87 | 1319.0 |
| 20260905033232 | 15 | 234 | 3.2 | 3.2 | 0.00 | 0.10 | 0.00 | 88 | 1318.6 |
| 20260905030220 | 15 | 198 | 3.2 | 3.2 | 0.00 | 0.10 | 0.00 | 87 | 1318.4 |
| 20260905023206 | 15 | 252 | 11.3 | 16.1 | 0.00 | 0.10 | 0.00 | 89 | 1318.1 |
| 20260905020155 | 15 | 276 | 3.2 | 3.2 | 0.00 | 0.10 | 0.00 | 89 | 1317.7 |
| 20260905013154 | 15 | 210 | 3.2 | 3.2 | 0.00 | 0.10 | 0.00 | 90 | 1318.0 |
| 20260905010154 | 15 | 206 | 4.8 | 6.4 | 0.00 | 0.10 | 0.00 | 90 | 1317.7 |
| 20260905003154 | 15 | 86 | 8.0 | 8.0 | 0.03 | 0.08 | 0.00 | 90 | 1317.5 |
| 20260905000141 | 15 | 168 | 8.0 | 9.7 | 0.08 | 0.08 | 0.00 | 88 | 1316.8 |
| 20260904233128 | 15 | 180 | 3.2 | 3.2 | 0.05 | 0.05 | 0.00 | 88 | 1316.5 |
| 20260904230128 | 16 | 161 | 8.0 | 9.7 | 0.00 | 0.00 | 0.00 | 85 | 1316.0 |
| 20260904223128 | 17 | 174 | 4.8 | 4.8 | 0.00 | 0.28 | 0.00 | 85 | 1315.5 |
| 20260904220115 | 17 | 182 | 3.2 | 3.2 | 0.03 | 0.28 | 0.00 | 88 | 1315.5 |
| 20260904213103 | 17 | 289 | 3.2 | 3.2 | 0.03 | 0.28 | 0.00 | 91 | 1315.4 |
| 20260904203051 | 18 | 300 | 3.2 | 3.2 | 0.23 | 0.23 | 0.00 | 90 | 1315.1 |
| 20260904200050 | 20 | 204 | 6.4 | 6.4 | 0.08 | 0.08 | 0.00 | 76 | 1315.2 |